Time;durP1;ratioP1;P1;durP2;ratioP2;P2;SDS_P1;SDS_P2;PMS_P1;PMS_P2;Temp;Humidity;BMP_temperature;BMP_pressure;BME280_temperature;BME280_humidity;BME280_pressure;Samples;Min_cycle;Max_cycle;Signal;HPM_P1;HPM_P2
2021/09/25 00:01:05;;;;;;;0.00;0.00;;;;;;;;;;10379059;28;20045;-68
2021/09/25 00:06:08;;;;;;;0.03;0.03;;;;;;;;;;10382938;28;20045;-68
2021/09/25 00:11:13;;;;;;;0.00;0.00;;;;;;;;;;10381105;28;20789;-68
2021/09/25 00:16:16;;;;;;;0.03;0.00;;;;;;;;;;10382830;28;20042;-65
2021/09/25 00:21:19;;;;;;;0.00;0.00;;;;;;;;;;10387973;28;20064;-65
2021/09/25 00:26:23;;;;;;;0.00;0.00;;;;;;;;;;10381337;28;20071;-65
2021/09/25 00:31:26;;;;;;;0.15;0.15;;;;;;;;;;10369025;28;20550;-65
2021/09/25 00:36:29;;;;;;;0.10;0.10;;;;;;;;;;10379450;28;20432;-65
2021/09/25 00:41:33;;;;;;;0.00;0.00;;;;;;;;;;10377972;28;20456;-65
2021/09/25 00:46:36;;;;;;;0.00;0.00;;;;;;;;;;10376106;28;20049;-64
2021/09/25 00:51:39;;;;;;;0.00;0.00;;;;;;;;;;10381250;28;20049;-65
2021/09/25 00:56:44;;;;;;;0.00;0.00;;;;;;;;;;10378299;28;20047;-64
2021/09/25 01:01:47;;;;;;;0.00;0.00;;;;;;;;;;10378445;28;20069;-65
2021/09/25 01:06:51;;;;;;;0.00;0.00;;;;;;;;;;10376716;28;20049;-65
2021/09/25 01:11:56;;;;;;;0.00;0.00;;;;;;;;;;10379342;28;20537;-65
2021/09/25 01:17:03;;;;;;;0.10;0.10;;;;;;;;;;10381232;28;20040;-65
2021/09/25 01:22:07;;;;;;;0.00;0.00;;;;;;;;;;10380807;28;20033;-65
2021/09/25 01:27:29;;;;;;;0.10;0.10;;;;;;;;;;10383525;28;20044;-65
2021/09/25 01:32:32;;;;;;;0.00;0.00;;;;;;;;;;10380279;28;20120;-65
2021/09/25 01:37:36;;;;;;;0.10;0.10;;;;;;;;;;10375106;28;20056;-65
2021/09/25 01:42:39;;;;;;;0.00;0.00;;;;;;;;;;10386237;28;20042;-65
2021/09/25 01:47:43;;;;;;;0.00;0.00;;;;;;;;;;10385536;28;20048;-65
2021/09/25 01:52:47;;;;;;;0.00;0.00;;;;;;;;;;10382724;28;20507;-64
2021/09/25 01:57:50;;;;;;;0.00;0.00;;;;;;;;;;10388257;28;20053;-64
2021/09/25 02:02:53;;;;;;;0.00;0.00;;;;;;;;;;10386033;28;20097;-64
2021/09/25 02:07:58;;;;;;;0.10;0.10;;;;;;;;;;10389736;28;20365;-65
2021/09/25 02:13:01;;;;;;;0.00;0.00;;;;;;;;;;10388941;28;20156;-65
2021/09/25 02:18:03;;;;;;;0.00;0.00;;;;;;;;;;10383472;28;20045;-65
2021/09/25 02:23:07;;;;;;;0.13;0.10;;;;;;;;;;10376161;28;20042;-65
2021/09/25 02:28:10;;;;;;;0.00;0.00;;;;;;;;;;10382148;28;20052;-66
2021/09/25 02:33:13;;;;;;;0.10;0.10;;;;;;;;;;10379153;28;20041;-65
2021/09/25 02:38:17;;;;;;;0.00;0.00;;;;;;;;;;10384250;28;20057;-65
2021/09/25 02:43:20;;;;;;;0.00;0.00;;;;;;;;;;10376268;28;20380;-65
2021/09/25 02:48:23;;;;;;;0.10;0.10;;;;;;;;;;10378516;28;20100;-65
2021/09/25 02:53:27;;;;;;;0.00;0.00;;;;;;;;;;10378460;28;20050;-65
2021/09/25 02:58:30;;;;;;;0.03;0.03;;;;;;;;;;10381990;28;20042;-65
2021/09/25 03:03:33;;;;;;;0.00;0.00;;;;;;;;;;10378453;28;20502;-65
2021/09/25 03:08:37;;;;;;;0.00;0.00;;;;;;;;;;10376121;28;20056;-65
2021/09/25 03:13:40;;;;;;;0.10;0.10;;;;;;;;;;10375470;28;20053;-66
2021/09/25 03:18:43;;;;;;;0.00;0.00;;;;;;;;;;10379819;28;20041;-65
2021/09/25 03:23:47;;;;;;;0.08;0.08;;;;;;;;;;10377575;28;20040;-66
2021/09/25 03:28:50;;;;;;;0.28;0.00;;;;;;;;;;10372740;28;20044;-65
2021/09/25 03:33:53;;;;;;;0.00;0.00;;;;;;;;;;10380025;28;20046;-67
2021/09/25 03:38:57;;;;;;;0.00;0.00;;;;;;;;;;10376987;28;20046;-67
2021/09/25 03:44:00;;;;;;;0.00;0.00;;;;;;;;;;10376888;28;20033;-67
2021/09/25 03:49:03;;;;;;;0.00;0.00;;;;;;;;;;10380617;28;20041;-67
2021/09/25 03:54:07;;;;;;;0.00;0.00;;;;;;;;;;10384344;28;20037;-68
2021/09/25 03:59:09;;;;;;;0.00;0.00;;;;;;;;;;10386897;28;20396;-67
2021/09/25 04:04:12;;;;;;;0.10;0.10;;;;;;;;;;10384850;28;20845;-67
2021/09/25 04:09:16;;;;;;;0.00;0.00;;;;;;;;;;10389955;28;20053;-67
2021/09/25 04:14:19;;;;;;;0.00;0.00;;;;;;;;;;10385684;28;20048;-68
2021/09/25 04:19:22;;;;;;;0.10;0.10;;;;;;;;;;10378066;28;20404;-67
2021/09/25 04:24:27;;;;;;;0.10;0.10;;;;;;;;;;10373767;28;20049;-67
2021/09/25 04:29:29;;;;;;;0.00;0.00;;;;;;;;;;10375739;28;20049;-67
2021/09/25 04:34:32;;;;;;;0.00;0.00;;;;;;;;;;10373910;28;20045;-67
2021/09/25 04:39:37;;;;;;;0.00;0.00;;;;;;;;;;10381179;28;20445;-67
2021/09/25 04:44:39;;;;;;;0.00;0.00;;;;;;;;;;10375410;28;20038;-67
2021/09/25 04:49:42;;;;;;;0.00;0.00;;;;;;;;;;10373943;28;20164;-67
2021/09/25 04:54:46;;;;;;;0.10;0.10;;;;;;;;;;10372354;28;20045;-67
2021/09/25 04:59:49;;;;;;;0.08;0.08;;;;;;;;;;10371285;28;20046;-67
2021/09/25 05:04:52;;;;;;;0.00;0.00;;;;;;;;;;10376096;28;20523;-68
2021/09/25 05:09:56;;;;;;;0.05;0.05;;;;;;;;;;10380417;28;20049;-68
2021/09/25 05:14:59;;;;;;;0.20;0.10;;;;;;;;;;10372691;28;20358;-67
2021/09/25 05:20:03;;;;;;;0.03;0.03;;;;;;;;;;10376590;28;20045;-67
2021/09/25 05:25:08;;;;;;;0.00;0.00;;;;;;;;;;10373800;28;20053;-68
2021/09/25 05:30:12;;;;;;;0.00;0.00;;;;;;;;;;10388045;28;20045;-66
2021/09/25 05:35:15;;;;;;;0.00;0.00;;;;;;;;;;10388538;28;20048;-66
2021/09/25 05:40:19;;;;;;;0.00;0.00;;;;;;;;;;10387069;28;20709;-68
2021/09/25 05:45:22;;;;;;;0.05;0.05;;;;;;;;;;10386323;28;20053;-68
2021/09/25 05:50:25;;;;;;;0.10;0.10;;;;;;;;;;10392350;28;20053;-70
2021/09/25 05:55:29;;;;;;;0.10;0.10;;;;;;;;;;10384882;28;20064;-68
2021/09/25 06:00:32;;;;;;;0.00;0.00;;;;;;;;;;10392094;28;20040;-67
2021/09/25 06:05:35;;;;;;;0.00;0.00;;;;;;;;;;10387066;28;20049;-66
2021/09/25 06:10:39;;;;;;;0.10;0.00;;;;;;;;;;10382505;28;20056;-67
2021/09/25 06:15:42;;;;;;;0.10;0.00;;;;;;;;;;10380916;28;20093;-66
2021/09/25 06:20:45;;;;;;;0.28;0.00;;;;;;;;;;10368938;28;20131;-66
2021/09/25 06:25:49;;;;;;;0.20;0.10;;;;;;;;;;10375427;28;20049;-67
2021/09/25 06:30:52;;;;;;;0.00;0.00;;;;;;;;;;10384427;28;20454;-67
2021/09/25 06:35:55;;;;;;;0.00;0.00;;;;;;;;;;10368804;28;20046;-67
2021/09/25 06:40:59;;;;;;;0.00;0.00;;;;;;;;;;10369389;28;20050;-66
2021/09/25 06:46:02;;;;;;;0.00;0.00;;;;;;;;;;10372575;28;20045;-66
2021/09/25 06:51:05;;;;;;;0.00;0.00;;;;;;;;;;10381735;28;20038;-67
2021/09/25 06:56:09;;;;;;;0.10;0.08;;;;;;;;;;10385762;28;20050;-66
2021/09/25 07:01:12;;;;;;;0.00;0.00;;;;;;;;;;10380994;28;20049;-66
2021/09/25 07:06:15;;;;;;;0.00;0.00;;;;;;;;;;10379452;28;20050;-66
2021/09/25 07:11:19;;;;;;;0.00;0.00;;;;;;;;;;10381002;28;20061;-66
2021/09/25 07:16:22;;;;;;;0.00;0.00;;;;;;;;;;10377851;28;20046;-66
2021/09/25 07:21:25;;;;;;;0.00;0.00;;;;;;;;;;10379915;28;20135;-66
2021/09/25 07:26:29;;;;;;;0.00;0.00;;;;;;;;;;10380842;28;20230;-66
2021/09/25 07:31:32;;;;;;;0.00;0.00;;;;;;;;;;10381388;28;20046;-66
2021/09/25 07:36:34;;;;;;;0.03;0.03;;;;;;;;;;10380448;28;20037;-66
2021/09/25 07:41:38;;;;;;;0.00;0.00;;;;;;;;;;10381814;28;20053;-66
2021/09/25 07:46:41;;;;;;;0.10;0.10;;;;;;;;;;10384790;28;20111;-66
2021/09/25 07:51:44;;;;;;;0.00;0.00;;;;;;;;;;10386634;28;20048;-66
2021/09/25 07:56:48;;;;;;;0.00;0.00;;;;;;;;;;10379154;28;20064;-66
2021/09/25 08:01:51;;;;;;;0.00;0.00;;;;;;;;;;10373637;28;20404;-66
2021/09/25 08:06:54;;;;;;;0.03;0.03;;;;;;;;;;10376377;28;20041;-66
2021/09/25 08:11:58;;;;;;;0.00;0.00;;;;;;;;;;10372337;28;20049;-66
2021/09/25 08:17:01;;;;;;;0.00;0.00;;;;;;;;;;10368537;28;20573;-66
2021/09/25 08:22:04;;;;;;;0.10;0.10;;;;;;;;;;10365623;28;20091;-66
2021/09/25 08:27:08;;;;;;;0.00;0.00;;;;;;;;;;10386611;28;20053;-66
2021/09/25 08:32:10;;;;;;;0.08;0.08;;;;;;;;;;10381497;28;20052;-67
2021/09/25 08:37:15;;;;;;;0.00;0.00;;;;;;;;;;10382608;28;20053;-67
2021/09/25 08:42:19;;;;;;;0.00;0.00;;;;;;;;;;10373255;28;20061;-66
2021/09/25 08:47:22;;;;;;;0.10;0.10;;;;;;;;;;10367894;28;20053;-67
2021/09/25 08:52:25;;;;;;;0.08;0.08;;;;;;;;;;10375493;28;20486;-66
2021/09/25 08:57:29;;;;;;;0.00;0.00;;;;;;;;;;10375834;28;20049;-67
2021/09/25 09:02:32;;;;;;;0.10;0.10;;;;;;;;;;10381540;28;20283;-67
2021/09/25 09:07:36;;;;;;;0.00;0.00;;;;;;;;;;10382986;28;20049;-67
2021/09/25 09:12:40;;;;;;;0.00;0.00;;;;;;;;;;10386448;28;20052;-67
2021/09/25 09:17:43;;;;;;;0.00;0.00;;;;;;;;;;10381481;28;20057;-66
2021/09/25 09:22:46;;;;;;;0.00;0.00;;;;;;;;;;10387604;28;20152;-66
2021/09/25 09:27:50;;;;;;;0.00;0.00;;;;;;;;;;10387867;28;20598;-67
2021/09/25 09:32:54;;;;;;;0.00;0.00;;;;;;;;;;10388092;28;20468;-67
2021/09/25 09:37:58;;;;;;;0.10;0.00;;;;;;;;;;10387580;28;20053;-67
2021/09/25 09:43:03;;;;;;;0.00;0.00;;;;;;;;;;10386259;28;20463;-67
2021/09/25 09:48:11;;;;;;;0.00;0.00;;;;;;;;;;10385139;28;20142;-67
2021/09/25 09:53:15;;;;;;;0.00;0.00;;;;;;;;;;10381448;28;20049;-67
2021/09/25 09:58:22;;;;;;;0.00;0.00;;;;;;;;;;10373852;28;20081;-67
2021/09/25 10:03:25;;;;;;;0.00;0.00;;;;;;;;;;10377827;28;20064;-67
2021/09/25 10:08:27;;;;;;;0.00;0.00;;;;;;;;;;10373499;28;20061;-67
2021/09/25 10:13:33;;;;;;;0.00;0.00;;;;;;;;;;10385467;28;20057;-67
2021/09/25 10:18:36;;;;;;;0.00;0.00;;;;;;;;;;10380892;28;20045;-67
2021/09/25 10:23:42;;;;;;;0.00;0.00;;;;;;;;;;10378926;28;20641;-67
2021/09/25 10:28:58;;;;;;;0.00;0.00;;;;;;;;;;10372399;28;20095;-66
2021/09/25 10:34:09;;;;;;;0.00;0.00;;;;;;;;;;10374317;28;20042;-68
2021/09/25 10:39:16;;;;;;;0.00;0.00;;;;;;;;;;10380337;28;20474;-67
2021/09/25 10:44:28;;;;;;;0.00;0.00;;;;;;;;;;10369697;28;20049;-64
2021/09/25 10:49:40;;;;;;;0.00;0.00;;;;;;;;;;10382021;28;20057;-65
2021/09/25 10:54:43;;;;;;;0.00;0.00;;;;;;;;;;10377442;28;20030;-66
2021/09/25 11:00:16;;;;;;;0.00;0.00;;;;;;;;;;10369795;28;20624;-66
2021/09/25 11:05:40;;;;;;;0.32;0.00;;;;;;;;;;10273276;28;20377;-66
2021/09/25 11:10:57;;;;;;;0.00;0.00;;;;;;;;;;10376054;28;20056;-66
2021/09/25 11:16:04;;;;;;;0.00;0.00;;;;;;;;;;10370534;28;20436;-66
2021/09/25 11:21:07;;;;;;;0.00;0.00;;;;;;;;;;10379764;28;20037;-66
2021/09/25 11:26:10;;;;;;;0.00;0.00;;;;;;;;;;10377815;28;20053;-66
2021/09/25 11:31:15;;;;;;;0.10;0.00;;;;;;;;;;10381003;28;20062;-66
2021/09/25 11:36:18;;;;;;;0.00;0.00;;;;;;;;;;10374205;28;20053;-66
2021/09/25 11:41:21;;;;;;;0.00;0.00;;;;;;;;;;10364777;28;20041;-66
2021/09/25 11:46:26;;;;;;;0.00;0.00;;;;;;;;;;10376246;28;20049;-66
2021/09/25 11:51:28;;;;;;;0.00;0.00;;;;;;;;;;10372689;28;20507;-66
2021/09/25 11:56:34;;;;;;;0.00;0.00;;;;;;;;;;10366485;28;20893;-66
2021/09/25 12:01:39;;;;;;;0.00;0.00;;;;;;;;;;10372786;28;20147;-66
2021/09/25 12:06:51;;;;;;;0.00;0.00;;;;;;;;;;10372683;28;20048;-66
2021/09/25 12:11:53;;;;;;;0.10;0.00;;;;;;;;;;10375872;28;20050;-66
2021/09/25 12:17:00;;;;;;;0.00;0.00;;;;;;;;;;10369191;28;20370;-71
2021/09/25 12:22:03;;;;;;;0.00;0.00;;;;;;;;;;10374419;28;20201;-71
2021/09/25 12:27:06;;;;;;;0.00;0.00;;;;;;;;;;10375482;28;20041;-71
2021/09/25 12:32:10;;;;;;;0.00;0.00;;;;;;;;;;10377377;28;20045;-71
2021/09/25 12:37:14;;;;;;;0.00;0.00;;;;;;;;;;10379744;28;20061;-71
2021/09/25 12:42:25;;;;;;;0.10;0.00;;;;;;;;;;10385571;28;20050;-71
2021/09/25 12:47:32;;;;;;;0.00;0.00;;;;;;;;;;10384468;28;20045;-71
2021/09/25 12:52:36;;;;;;;0.00;0.00;;;;;;;;;;10384641;28;20038;-72
2021/09/25 12:57:39;;;;;;;0.00;0.00;;;;;;;;;;10382911;28;20057;-70
2021/09/25 13:02:43;;;;;;;0.00;0.00;;;;;;;;;;10387235;28;20041;-70
2021/09/25 13:07:47;;;;;;;0.00;0.00;;;;;;;;;;10388045;28;20563;-70
2021/09/25 13:12:51;;;;;;;0.00;0.00;;;;;;;;;;10391322;28;20067;-70
2021/09/25 13:17:56;;;;;;;0.00;0.00;;;;;;;;;;10391512;28;20037;-70
2021/09/25 13:23:00;;;;;;;0.00;0.00;;;;;;;;;;10391160;28;20554;-70
2021/09/25 13:28:05;;;;;;;0.00;0.00;;;;;;;;;;10390051;28;20138;-71
2021/09/25 13:33:12;;;;;;;0.00;0.00;;;;;;;;;;10377237;28;20092;-71
2021/09/25 13:38:15;;;;;;;0.00;0.00;;;;;;;;;;10375652;28;21029;-71
2021/09/25 13:43:19;;;;;;;0.10;0.00;;;;;;;;;;10379434;28;20056;-71
2021/09/25 13:48:23;;;;;;;0.00;0.00;;;;;;;;;;10379174;28;20045;-70
2021/09/25 13:53:26;;;;;;;0.00;0.00;;;;;;;;;;10387157;28;20153;-70
2021/09/25 13:58:29;;;;;;;0.00;0.00;;;;;;;;;;10370981;28;20416;-71
2021/09/25 14:03:33;;;;;;;0.00;0.00;;;;;;;;;;10382117;28;20038;-71
2021/09/25 14:08:37;;;;;;;0.00;0.00;;;;;;;;;;10383693;28;20464;-71
2021/09/25 14:13:41;;;;;;;0.00;0.00;;;;;;;;;;10380137;28;20435;-71
2021/09/25 14:18:46;;;;;;;0.00;0.00;;;;;;;;;;10372696;28;20065;-71
2021/09/25 14:23:49;;;;;;;0.00;0.00;;;;;;;;;;10389065;28;20447;-71
2021/09/25 14:28:51;;;;;;;0.00;0.00;;;;;;;;;;10388646;28;20076;-71
2021/09/25 14:33:56;;;;;;;0.00;0.00;;;;;;;;;;10385438;28;20046;-71
2021/09/25 14:38:58;;;;;;;0.00;0.00;;;;;;;;;;10387987;28;20037;-71
2021/09/25 14:44:03;;;;;;;0.03;0.00;;;;;;;;;;10384485;28;20042;-71
2021/09/25 14:49:07;;;;;;;0.00;0.00;;;;;;;;;;10383178;28;20582;-71
2021/09/25 14:54:10;;;;;;;0.00;0.00;;;;;;;;;;10381932;28;20041;-71
2021/09/25 14:59:13;;;;;;;0.05;0.00;;;;;;;;;;10384163;28;20114;-71
2021/09/25 15:04:17;;;;;;;0.00;0.00;;;;;;;;;;10388645;28;20056;-71
2021/09/25 15:09:20;;;;;;;0.00;0.00;;;;;;;;;;10387794;28;20111;-69
2021/09/25 15:14:23;;;;;;;0.00;0.00;;;;;;;;;;10386407;28;21041;-70
2021/09/25 15:19:27;;;;;;;0.00;0.00;;;;;;;;;;10385385;28;20100;-70
2021/09/25 15:24:30;;;;;;;0.00;0.00;;;;;;;;;;10376039;28;20037;-69
2021/09/25 15:29:33;;;;;;;0.00;0.00;;;;;;;;;;10377793;28;20164;-70
2021/09/25 15:34:39;;;;;;;0.00;0.00;;;;;;;;;;10375985;28;20037;-71
2021/09/25 15:39:42;;;;;;;0.00;0.00;;;;;;;;;;10375181;28;20038;-70
2021/09/25 15:44:45;;;;;;;0.00;0.00;;;;;;;;;;10375287;28;20052;-70
2021/09/25 15:49:49;;;;;;;0.00;0.00;;;;;;;;;;10373960;28;20053;-71
2021/09/25 15:54:53;;;;;;;0.00;0.00;;;;;;;;;;10376944;28;20056;-70
2021/09/25 15:59:55;;;;;;;0.28;0.00;;;;;;;;;;10375370;28;20116;-70
2021/09/25 16:04:59;;;;;;;0.00;0.00;;;;;;;;;;10378742;28;20045;-70
2021/09/25 16:10:02;;;;;;;0.10;0.00;;;;;;;;;;10377541;28;20061;-69
2021/09/25 16:15:05;;;;;;;0.00;0.00;;;;;;;;;;10379151;28;20041;-70
2021/09/25 16:20:11;;;;;;;0.00;0.00;;;;;;;;;;10387634;28;20045;-70
2021/09/25 16:25:13;;;;;;;0.00;0.00;;;;;;;;;;10376065;28;20076;-68
2021/09/25 16:30:16;;;;;;;0.00;0.00;;;;;;;;;;10374691;28;20049;-70
2021/09/25 16:35:23;;;;;;;0.00;0.00;;;;;;;;;;10377311;28;20045;-69
2021/09/25 16:40:26;;;;;;;0.00;0.00;;;;;;;;;;10377655;28;20419;-70
2021/09/25 16:45:29;;;;;;;0.00;0.00;;;;;;;;;;10377917;28;20052;-70
2021/09/25 16:50:33;;;;;;;0.00;0.00;;;;;;;;;;10386378;28;20038;-70
2021/09/25 16:55:36;;;;;;;0.00;0.00;;;;;;;;;;10382329;28;20068;-69
2021/09/25 17:00:39;;;;;;;0.00;0.00;;;;;;;;;;10381155;28;20049;-69
2021/09/25 17:05:44;;;;;;;0.00;0.00;;;;;;;;;;10382492;28;20045;-70
2021/09/25 17:10:47;;;;;;;0.00;0.00;;;;;;;;;;10381985;28;20491;-70
2021/09/25 17:15:50;;;;;;;0.10;0.00;;;;;;;;;;10379626;28;20408;-70
2021/09/25 17:20:54;;;;;;;0.00;0.00;;;;;;;;;;10371702;28;20571;-70
2021/09/25 17:25:57;;;;;;;0.00;0.00;;;;;;;;;;10377304;28;20456;-70
2021/09/25 17:31:00;;;;;;;0.00;0.00;;;;;;;;;;10382175;28;20050;-70
2021/09/25 17:36:04;;;;;;;0.00;0.00;;;;;;;;;;10381024;28;20045;-72
2021/09/25 17:41:08;;;;;;;0.00;0.00;;;;;;;;;;10378959;28;20050;-70
2021/09/25 17:46:11;;;;;;;0.00;0.00;;;;;;;;;;10382558;28;20112;-73
2021/09/25 17:51:16;;;;;;;0.00;0.00;;;;;;;;;;10383896;28;20050;-76
2021/09/25 17:56:20;;;;;;;0.00;0.00;;;;;;;;;;10379359;28;20494;-68
2021/09/25 18:01:24;;;;;;;0.00;0.00;;;;;;;;;;10386716;28;20114;-70
2021/09/25 18:06:30;;;;;;;0.10;0.00;;;;;;;;;;10381205;28;20045;-68
2021/09/25 18:11:34;;;;;;;0.00;0.00;;;;;;;;;;10383649;28;20392;-71
2021/09/25 18:16:37;;;;;;;0.00;0.00;;;;;;;;;;10382280;28;20055;-72
2021/09/25 18:21:42;;;;;;;0.25;0.00;;;;;;;;;;10385634;28;20511;-67
2021/09/25 18:26:45;;;;;;;0.10;0.05;;;;;;;;;;10391315;28;20045;-69
2021/09/25 18:31:48;;;;;;;0.00;0.00;;;;;;;;;;10383802;28;20054;-69
2021/09/25 18:36:52;;;;;;;0.00;0.00;;;;;;;;;;10388720;28;20041;-70
2021/09/25 18:41:55;;;;;;;0.00;0.00;;;;;;;;;;10390413;28;20057;-70
2021/09/25 18:46:58;;;;;;;0.00;0.00;;;;;;;;;;10386936;28;20054;-70
2021/09/25 18:52:03;;;;;;;0.00;0.00;;;;;;;;;;10393805;28;20058;-70
2021/09/25 18:57:06;;;;;;;0.00;0.00;;;;;;;;;;10391761;28;20487;-70
2021/09/25 19:02:09;;;;;;;0.30;0.00;;;;;;;;;;10392326;28;20128;-70
2021/09/25 19:07:13;;;;;;;0.00;0.00;;;;;;;;;;10384358;28;20767;-70
2021/09/25 19:12:16;;;;;;;0.00;0.00;;;;;;;;;;10371975;28;20051;-70
2021/09/25 19:17:19;;;;;;;0.00;0.00;;;;;;;;;;10373316;28;20045;-70
2021/09/25 19:22:24;;;;;;;0.43;0.00;;;;;;;;;;10374553;28;20569;-70
2021/09/25 19:27:28;;;;;;;0.00;0.00;;;;;;;;;;10378953;28;20095;-70
2021/09/25 19:32:31;;;;;;;0.00;0.00;;;;;;;;;;10374784;28;20247;-70
2021/09/25 19:37:35;;;;;;;0.00;0.00;;;;;;;;;;10381068;28;20377;-70
2021/09/25 19:42:38;;;;;;;0.00;0.00;;;;;;;;;;10379327;28;20045;-69
2021/09/25 19:47:41;;;;;;;0.00;0.00;;;;;;;;;;10376460;28;20747;-69
2021/09/25 19:52:45;;;;;;;0.00;0.00;;;;;;;;;;10378129;28;20052;-69
2021/09/25 19:57:48;;;;;;;0.00;0.00;;;;;;;;;;10381033;28;20057;-69
2021/09/25 20:02:51;;;;;;;0.08;0.00;;;;;;;;;;10378331;28;20041;-69
2021/09/25 20:07:55;;;;;;;0.00;0.00;;;;;;;;;;10375987;28;20037;-70
2021/09/25 20:12:58;;;;;;;0.20;0.10;;;;;;;;;;10374207;28;20621;-70
2021/09/25 20:18:01;;;;;;;0.00;0.00;;;;;;;;;;10377046;28;20056;-69
2021/09/25 20:23:05;;;;;;;0.00;0.00;;;;;;;;;;10375451;28;20044;-70
2021/09/25 20:28:10;;;;;;;0.00;0.00;;;;;;;;;;10376840;28;20044;-68
2021/09/25 20:33:18;;;;;;;0.00;0.00;;;;;;;;;;10382878;28;20053;-69
2021/09/25 20:38:26;;;;;;;0.08;0.00;;;;;;;;;;10378503;28;20435;-69
2021/09/25 20:43:28;;;;;;;0.08;0.08;;;;;;;;;;10385285;28;20053;-69
2021/09/25 20:48:32;;;;;;;0.00;0.00;;;;;;;;;;10385156;28;20372;-70
2021/09/25 20:53:36;;;;;;;0.00;0.00;;;;;;;;;;10386525;28;20048;-69
2021/09/25 20:58:39;;;;;;;0.00;0.00;;;;;;;;;;10394323;28;21024;-70
2021/09/25 21:03:44;;;;;;;0.00;0.00;;;;;;;;;;10376558;28;20056;-70
2021/09/25 21:09:08;;;;;;;0.43;0.10;;;;;;;;;;10382286;28;20053;-69
2021/09/25 21:14:11;;;;;;;0.00;0.00;;;;;;;;;;10385476;28;20079;-69
2021/09/25 21:19:14;;;;;;;0.00;0.00;;;;;;;;;;10377851;28;20045;-70
2021/09/25 21:24:18;;;;;;;0.00;0.00;;;;;;;;;;10383356;28;20048;-70
2021/09/25 21:29:21;;;;;;;0.00;0.00;;;;;;;;;;10379155;28;20034;-70
2021/09/25 21:34:24;;;;;;;0.00;0.00;;;;;;;;;;10382896;28;20069;-70
2021/09/25 21:39:29;;;;;;;0.00;0.00;;;;;;;;;;10381838;28;20041;-70
2021/09/25 21:44:32;;;;;;;0.00;0.00;;;;;;;;;;10384452;28;20042;-70
2021/09/25 21:49:35;;;;;;;0.00;0.00;;;;;;;;;;10379891;28;20476;-70
2021/09/25 21:54:39;;;;;;;0.00;0.00;;;;;;;;;;10379391;28;20411;-69
2021/09/25 21:59:42;;;;;;;0.00;0.00;;;;;;;;;;10382228;28;20045;-69
2021/09/25 22:04:46;;;;;;;0.00;0.00;;;;;;;;;;10380648;28;20049;-69
2021/09/25 22:09:50;;;;;;;0.05;0.05;;;;;;;;;;10384251;28;20168;-69
2021/09/25 22:14:54;;;;;;;0.00;0.00;;;;;;;;;;10384487;28;20037;-69
2021/09/25 22:19:57;;;;;;;0.00;0.00;;;;;;;;;;10387097;28;20099;-69
2021/09/25 22:25:01;;;;;;;0.00;0.00;;;;;;;;;;10388617;28;20071;-69
2021/09/25 22:30:05;;;;;;;0.00;0.00;;;;;;;;;;10389259;28;20140;-69
2021/09/25 22:35:10;;;;;;;0.00;0.00;;;;;;;;;;10377559;28;20037;-69
2021/09/25 22:40:16;;;;;;;0.10;0.10;;;;;;;;;;10377956;28;20412;-69
2021/09/25 22:45:19;;;;;;;0.00;0.00;;;;;;;;;;10377248;28;20493;-69
2021/09/25 22:50:22;;;;;;;0.10;0.10;;;;;;;;;;10377447;28;20049;-69
2021/09/25 22:55:27;;;;;;;0.00;0.00;;;;;;;;;;10379939;28;20054;-69
2021/09/25 23:00:30;;;;;;;0.00;0.00;;;;;;;;;;10374025;28;20044;-69
2021/09/25 23:05:32;;;;;;;0.00;0.00;;;;;;;;;;10375415;28;20038;-69
2021/09/25 23:17:17;;;;;;;0.00;0.00;;;;;;;;;;10349061;28;20105;-69
2021/09/25 23:22:20;;;;;;;0.00;0.00;;;;;;;;;;10378325;28;20054;-69
2021/09/25 23:27:23;;;;;;;0.00;0.00;;;;;;;;;;10378682;28;20038;-69
2021/09/25 23:32:27;;;;;;;0.00;0.00;;;;;;;;;;10376319;28;20054;-69
2021/09/25 23:37:30;;;;;;;0.00;0.00;;;;;;;;;;10372256;28;20037;-69
2021/09/25 23:42:33;;;;;;;0.00;0.00;;;;;;;;;;10384894;28;20054;-69
2021/09/25 23:47:38;;;;;;;0.00;0.00;;;;;;;;;;10378036;28;20037;-69
2021/09/25 23:52:42;;;;;;;0.00;0.00;;;;;;;;;;10377745;28;20052;-69
2021/09/25 23:57:46;;;;;;;0.00;0.00;;;;;;;;;;10383923;28;20041;-69
